createdAt,value
2018-12-13T00:00:00.363Z,0.00
2018-12-13T00:01:00.348Z,0.00
2018-12-13T00:02:00.371Z,0.00
2018-12-13T00:03:00.328Z,0.00
2018-12-13T00:04:00.320Z,0.00
2018-12-13T00:05:00.309Z,0.00
2018-12-13T00:06:00.300Z,0.00
2018-12-13T00:07:00.287Z,0.00
2018-12-13T00:08:00.290Z,0.00
2018-12-13T00:09:00.268Z,0.00
2018-12-13T00:10:00.256Z,0.00
2018-12-13T00:11:00.244Z,0.00
2018-12-13T00:12:00.233Z,0.00
2018-12-13T00:13:00.257Z,0.00
2018-12-13T00:14:00.216Z,0.00
2018-12-13T00:15:00.200Z,0.00
2018-12-13T00:16:00.190Z,0.00
2018-12-13T00:17:00.181Z,0.00
2018-12-13T00:18:00.171Z,0.00
2018-12-13T00:19:00.169Z,0.00
2018-12-13T00:20:00.148Z,0.00
2018-12-13T00:21:00.137Z,0.00
2018-12-13T00:22:00.127Z,0.00
2018-12-13T00:23:00.116Z,0.00
2018-12-13T00:24:00.138Z,0.00
2018-12-13T00:25:00.100Z,0.00
2018-12-13T00:26:00.084Z,0.00
2018-12-13T00:27:00.075Z,0.00
2018-12-13T00:28:00.064Z,0.00
2018-12-13T00:29:00.054Z,0.00
2018-12-13T00:30:00.062Z,0.00
2018-12-13T00:31:00.032Z,0.00
2018-12-13T00:32:00.020Z,0.00
2018-12-13T00:33:00.008Z,0.00
2018-12-13T00:33:59.997Z,0.00
2018-12-13T00:34:59.998Z,0.00
2018-12-13T00:35:59.978Z,0.00
2018-12-13T00:36:59.968Z,0.00
2018-12-13T00:37:59.955Z,0.00
2018-12-13T00:38:59.946Z,0.00
2018-12-13T00:39:59.951Z,0.00
2018-12-13T00:40:59.926Z,0.00
2018-12-13T00:41:59.925Z,0.00
2018-12-13T00:42:59.901Z,0.00
2018-12-13T00:43:59.895Z,0.00
2018-12-13T00:44:59.883Z,0.00
2018-12-13T00:45:59.882Z,0.00
2018-12-13T00:46:59.859Z,0.00
2018-12-13T00:47:59.847Z,0.00
2018-12-13T00:48:59.841Z,0.00
2018-12-13T00:49:59.826Z,0.00
2018-12-13T00:50:59.831Z,0.00
2018-12-13T00:51:59.825Z,0.00
2018-12-13T00:52:59.799Z,0.00
2018-12-13T00:53:59.784Z,0.00
2018-12-13T00:54:59.775Z,0.00
2018-12-13T00:55:59.766Z,0.00
2018-12-13T00:56:59.773Z,0.00
2018-12-13T00:57:59.745Z,0.00
2018-12-13T00:58:59.737Z,0.00
2018-12-13T00:59:59.725Z,0.00
2018-12-13T01:00:59.713Z,0.00
2018-12-13T01:01:59.714Z,0.00
2018-12-13T01:02:59.692Z,0.00
2018-12-13T01:03:59.680Z,0.00
2018-12-13T01:04:59.668Z,0.00
2018-12-13T01:05:59.657Z,0.00
2018-12-13T01:06:59.660Z,0.00
2018-12-13T01:07:59.636Z,0.00
2018-12-13T01:08:59.636Z,0.00
2018-12-13T01:09:59.614Z,0.00
2018-12-13T01:10:59.605Z,0.00
2018-12-13T01:11:59.608Z,0.00
2018-12-13T01:12:59.600Z,0.00
2018-12-13T01:13:59.575Z,0.00
2018-12-13T01:14:59.562Z,0.00
2018-12-13T01:15:59.553Z,0.00
2018-12-13T01:16:59.556Z,0.00
2018-12-13T01:17:59.553Z,0.00
2018-12-13T01:18:59.519Z,0.00
2018-12-13T01:19:59.511Z,0.00
2018-12-13T01:20:59.498Z,0.00
2018-12-13T01:21:59.488Z,0.00
2018-12-13T01:22:59.479Z,0.00
2018-12-13T01:23:59.481Z,0.00
2018-12-13T01:24:59.454Z,0.00
2018-12-13T01:25:59.446Z,0.00
2018-12-13T01:26:59.436Z,0.00
2018-12-13T01:27:59.427Z,0.00
2018-12-13T01:28:59.435Z,0.00
2018-12-13T01:29:59.405Z,0.00
2018-12-13T01:30:59.393Z,0.00
2018-12-13T01:31:59.381Z,0.00
2018-12-13T01:32:59.372Z,0.00
2018-12-13T01:33:59.359Z,0.00
2018-12-13T01:34:59.362Z,0.00
2018-12-13T01:35:59.338Z,0.00
2018-12-13T01:36:59.331Z,0.00
2018-12-13T01:37:59.320Z,0.00
2018-12-13T01:38:59.314Z,0.00
2018-12-13T01:39:59.310Z,0.00
2018-12-13T01:40:59.283Z,0.00
2018-12-13T01:41:59.273Z,0.00
2018-12-13T01:42:59.265Z,0.00
2018-12-13T01:43:59.269Z,0.00
2018-12-13T01:44:59.254Z,0.00
2018-12-13T01:45:59.232Z,0.00
2018-12-13T01:46:59.222Z,0.00
2018-12-13T01:47:59.208Z,0.00
2018-12-13T01:48:59.198Z,0.00
2018-12-13T01:49:59.204Z,0.00
2018-12-13T01:50:59.194Z,0.00
2018-12-13T01:51:59.166Z,0.00
2018-12-13T01:52:59.155Z,0.00
2018-12-13T01:53:59.147Z,0.00
2018-12-13T01:54:59.134Z,0.00
2018-12-13T01:55:59.156Z,0.00
2018-12-13T01:56:59.115Z,0.00
2018-12-13T01:57:59.103Z,0.00
2018-12-13T01:58:59.094Z,0.00
2018-12-13T01:59:59.082Z,0.00
2018-12-13T02:00:59.069Z,0.00
2018-12-13T02:01:59.089Z,0.00
2018-12-13T02:02:59.048Z,0.00
2018-12-13T02:03:59.037Z,0.00
2018-12-13T02:04:59.031Z,0.00
2018-12-13T02:05:59.017Z,0.00
2018-12-13T02:06:59.014Z,0.00
2018-12-13T02:07:59.010Z,0.00
2018-12-13T02:08:58.986Z,0.00
2018-12-13T02:09:58.977Z,0.00
2018-12-13T02:10:58.962Z,0.00
2018-12-13T02:11:58.952Z,0.00
2018-12-13T02:12:58.955Z,0.00
2018-12-13T02:13:58.933Z,0.00
2018-12-13T02:14:58.920Z,0.00
2018-12-13T02:15:58.911Z,0.00
2018-12-13T02:16:58.903Z,0.00
2018-12-13T02:17:58.902Z,0.00
2018-12-13T02:18:58.882Z,0.00
2018-12-13T02:19:58.866Z,0.00
2018-12-13T02:20:58.855Z,0.00
2018-12-13T02:21:58.844Z,0.00
2018-12-13T02:22:58.834Z,0.00
2018-12-13T02:23:58.840Z,0.00
2018-12-13T02:24:58.817Z,0.00
2018-12-13T02:25:58.802Z,0.00
2018-12-13T02:26:58.790Z,0.00
2018-12-13T02:27:58.855Z,0.00
2018-12-13T02:28:58.789Z,0.00
2018-12-13T02:29:58.761Z,0.00
2018-12-13T02:30:58.752Z,0.00
2018-12-13T02:31:58.756Z,0.00
2018-12-13T02:32:58.733Z,0.00
2018-12-13T02:33:58.721Z,0.00
2018-12-13T02:34:58.717Z,0.00
2018-12-13T02:35:58.700Z,0.00
2018-12-13T02:37:05.755Z,0.00
2018-12-13T02:37:59.693Z,0.00
2018-12-13T02:38:58.662Z,0.00
2018-12-13T02:39:58.653Z,0.00
2018-12-13T02:40:58.685Z,0.00
2018-12-13T02:41:58.634Z,0.00
2018-12-13T02:42:58.626Z,0.00
2018-12-13T02:43:58.612Z,0.00
2018-12-13T02:44:58.597Z,0.00
2018-12-13T02:45:58.589Z,0.00
2018-12-13T02:46:58.594Z,0.00
2018-12-13T02:47:58.568Z,0.00
2018-12-13T02:48:58.555Z,0.00
2018-12-13T02:49:58.546Z,0.00
2018-12-13T02:50:58.557Z,0.00
2018-12-13T02:51:58.523Z,0.00
2018-12-13T02:52:58.513Z,0.00
2018-12-13T02:53:58.506Z,0.00
2018-12-13T02:54:58.489Z,0.00
2018-12-13T02:55:58.481Z,0.00
2018-12-13T02:56:58.487Z,0.00
2018-12-13T02:57:58.470Z,0.00
2018-12-13T02:58:58.450Z,0.00
2018-12-13T02:59:58.452Z,0.00
2018-12-13T03:00:58.429Z,0.00
2018-12-13T03:01:58.459Z,0.00
2018-12-13T03:02:58.407Z,0.00
2018-12-13T03:03:58.395Z,0.00
2018-12-13T03:04:58.386Z,0.00
2018-12-13T03:05:58.372Z,0.00
2018-12-13T03:06:58.362Z,0.00
2018-12-13T03:07:58.368Z,0.00
2018-12-13T03:08:58.339Z,0.00
2018-12-13T03:09:58.331Z,0.00
2018-12-13T03:10:58.319Z,0.00
2018-12-13T03:11:58.314Z,0.00
2018-12-13T03:12:58.339Z,0.00
2018-12-13T03:13:58.289Z,0.00
2018-12-13T03:14:58.277Z,0.00
2018-12-13T03:15:58.271Z,0.00
2018-12-13T03:16:58.258Z,0.00
2018-12-13T03:17:58.252Z,0.00
2018-12-13T03:18:58.250Z,0.00
2018-12-13T03:19:58.222Z,0.00
2018-12-13T03:20:58.213Z,0.00
2018-12-13T03:21:58.201Z,0.00
2018-12-13T03:22:58.218Z,0.00
2018-12-13T03:23:58.181Z,0.00
2018-12-13T03:24:58.169Z,0.00
2018-12-13T03:25:58.160Z,0.00
2018-12-13T03:26:58.147Z,0.00
2018-12-13T03:27:58.139Z,0.00
2018-12-13T03:28:58.143Z,0.00
2018-12-13T03:29:58.115Z,0.00
2018-12-13T03:30:58.107Z,0.00
2018-12-13T03:31:58.098Z,0.00
2018-12-13T03:32:58.101Z,0.00
2018-12-13T03:33:58.072Z,0.00
2018-12-13T03:34:58.064Z,0.00
2018-12-13T03:35:58.052Z,0.00
2018-12-13T03:36:58.040Z,0.00
2018-12-13T03:37:58.056Z,0.00
2018-12-13T03:38:58.037Z,0.00
2018-12-13T03:39:58.011Z,0.00
2018-12-13T03:40:58.003Z,0.00
2018-12-13T03:41:57.988Z,0.00
2018-12-13T03:42:57.978Z,0.00
2018-12-13T03:43:57.979Z,0.00
2018-12-13T03:44:57.959Z,0.00
2018-12-13T03:45:57.961Z,0.00
2018-12-13T03:46:57.936Z,0.00
2018-12-13T03:47:57.924Z,0.00
2018-12-13T03:48:57.912Z,0.00
2018-12-13T03:49:57.903Z,0.00
2018-12-13T03:50:57.908Z,0.00
2018-12-13T03:51:57.880Z,0.00
2018-12-13T03:52:57.870Z,0.00
2018-12-13T03:53:57.896Z,0.00
2018-12-13T03:54:57.847Z,0.00
2018-12-13T03:55:57.838Z,0.00
2018-12-13T03:56:57.829Z,0.00
2018-12-13T03:57:57.846Z,0.00
2018-12-13T03:58:57.806Z,0.00
2018-12-13T03:59:57.825Z,0.00
2018-12-13T04:00:57.791Z,0.00
2018-12-13T04:01:57.803Z,0.00
2018-12-13T04:02:57.765Z,0.00
2018-12-13T04:03:57.751Z,0.00
2018-12-13T04:04:57.741Z,0.00
2018-12-13T04:05:57.733Z,0.00
2018-12-13T04:06:57.722Z,0.00
2018-12-13T04:07:57.724Z,0.00
2018-12-13T04:08:57.698Z,0.00
2018-12-13T04:09:57.705Z,0.00
2018-12-13T04:10:57.676Z,0.00
2018-12-13T04:11:57.678Z,0.00
2018-12-13T04:12:57.658Z,0.00
2018-12-13T04:13:57.651Z,0.00
2018-12-13T04:14:57.650Z,0.00
2018-12-13T04:15:57.622Z,0.00
2018-12-13T04:16:57.615Z,0.00
2018-12-13T04:17:57.601Z,0.00
2018-12-13T04:18:57.593Z,0.00
2018-12-13T04:19:57.581Z,0.00
2018-12-13T04:20:57.590Z,0.00
2018-12-13T04:21:57.560Z,0.00
2018-12-13T04:22:57.550Z,0.00
2018-12-13T04:23:57.554Z,0.00
2018-12-13T04:24:57.530Z,0.00
2018-12-13T04:25:57.537Z,0.00
2018-12-13T04:26:57.507Z,0.00
2018-12-13T04:27:57.499Z,0.00
2018-12-13T04:28:57.527Z,0.00
2018-12-13T04:29:57.475Z,0.00
2018-12-13T04:30:57.463Z,0.00
2018-12-13T04:31:57.452Z,0.00
2018-12-13T04:32:57.446Z,0.00
2018-12-13T04:33:57.431Z,0.00
2018-12-13T04:34:57.436Z,0.00
2018-12-13T04:35:57.426Z,0.00
2018-12-13T04:36:57.402Z,0.00
2018-12-13T04:37:57.388Z,0.00
2018-12-13T04:38:57.382Z,0.00
2018-12-13T04:39:57.370Z,0.00
2018-12-13T04:40:57.380Z,0.00
2018-12-13T04:41:57.346Z,0.00
2018-12-13T04:42:57.338Z,0.00
2018-12-13T04:43:57.327Z,0.00
2018-12-13T04:44:57.322Z,0.00
2018-12-13T04:45:57.322Z,0.00
2018-12-13T04:46:57.296Z,0.00
2018-12-13T04:47:57.285Z,0.00
2018-12-13T04:48:57.311Z,0.00
2018-12-13T04:49:57.261Z,0.00
2018-12-13T04:50:57.253Z,0.00
2018-12-13T04:51:57.242Z,0.00
2018-12-13T04:52:57.232Z,0.00
2018-12-13T04:53:57.223Z,0.00
2018-12-13T04:54:57.222Z,0.00
2018-12-13T04:55:57.202Z,0.00
2018-12-13T04:56:57.189Z,0.00
2018-12-13T04:57:57.192Z,0.00
2018-12-13T04:58:57.168Z,0.00
2018-12-13T04:59:57.157Z,0.00
2018-12-13T05:00:57.144Z,0.00
2018-12-13T05:01:57.136Z,0.00
2018-12-13T05:02:57.144Z,0.00
2018-12-13T05:03:57.117Z,0.00
2018-12-13T05:04:57.116Z,0.00
2018-12-13T05:05:57.097Z,0.00
2018-12-13T05:06:57.082Z,0.00
2018-12-13T05:07:57.075Z,0.00
2018-12-13T05:08:57.057Z,0.00
2018-12-13T05:09:57.067Z,0.00
2018-12-13T05:10:57.151Z,0.00
2018-12-13T05:11:57.031Z,0.00
2018-12-13T05:12:57.018Z,0.00
2018-12-13T05:13:57.009Z,0.00
2018-12-13T05:14:56.998Z,0.00
2018-12-13T05:15:57.002Z,0.00
2018-12-13T05:16:56.982Z,0.00
2018-12-13T05:17:56.965Z,0.00
2018-12-13T05:18:56.971Z,0.00
2018-12-13T05:19:56.961Z,0.00
2018-12-13T05:20:56.936Z,0.00
2018-12-13T05:21:56.941Z,0.00
2018-12-13T05:22:56.918Z,0.00
2018-12-13T05:23:56.906Z,0.00
2018-12-13T05:24:56.890Z,0.00
2018-12-13T05:25:56.933Z,0.00
2018-12-13T05:26:56.870Z,0.00
2018-12-13T05:27:56.859Z,0.00
2018-12-13T05:28:56.851Z,0.00
2018-12-13T05:29:56.838Z,0.00
2018-12-13T05:30:56.827Z,0.00
2018-12-13T05:31:56.833Z,0.00
2018-12-13T05:32:56.820Z,0.00
2018-12-13T05:33:56.798Z,0.00
2018-12-13T05:34:56.800Z,0.00
2018-12-13T05:35:56.799Z,0.00
2018-12-13T05:36:56.764Z,0.00
2018-12-13T05:37:56.755Z,0.00
2018-12-13T05:38:56.741Z,0.00
2018-12-13T05:39:56.733Z,0.00
2018-12-13T05:40:56.723Z,0.00
2018-12-13T05:41:56.727Z,0.00
2018-12-13T05:42:56.701Z,0.00
2018-12-13T05:43:56.703Z,0.00
2018-12-13T05:44:56.679Z,0.00
2018-12-13T05:45:56.680Z,0.00
2018-12-13T05:46:56.659Z,0.00
2018-12-13T05:47:56.648Z,0.00
2018-12-13T05:48:56.649Z,0.00
2018-12-13T05:49:56.647Z,0.00
2018-12-13T05:50:56.615Z,0.00
2018-12-13T05:51:56.603Z,0.00
2018-12-13T05:52:56.594Z,0.00
2018-12-13T05:53:56.581Z,0.00
2018-12-13T05:54:56.572Z,0.00
2018-12-13T05:55:56.587Z,0.00
2018-12-13T05:56:56.552Z,0.00
2018-12-13T05:57:56.542Z,0.00
2018-12-13T05:58:56.530Z,0.00
2018-12-13T05:59:56.518Z,0.00
2018-12-13T06:00:56.895Z,0.00
2018-12-13T06:01:56.511Z,0.00
2018-12-13T06:02:56.492Z,0.00
2018-12-13T06:03:56.475Z,0.00
2018-12-13T06:04:56.486Z,0.00
2018-12-13T06:05:56.454Z,0.00
2018-12-13T06:06:56.445Z,0.00
2018-12-13T06:07:56.435Z,0.00
2018-12-13T06:08:56.425Z,0.00
2018-12-13T06:09:56.411Z,0.00
2018-12-13T06:10:56.417Z,0.00
2018-12-13T06:11:56.393Z,0.00
2018-12-13T06:12:56.380Z,0.00
2018-12-13T06:13:56.372Z,0.00
2018-12-13T06:14:56.392Z,0.00
2018-12-13T06:15:56.351Z,0.00
2018-12-13T06:16:56.337Z,0.00
2018-12-13T06:17:56.370Z,0.00
2018-12-13T06:18:56.317Z,0.00
2018-12-13T06:19:56.307Z,0.00
2018-12-13T06:20:56.309Z,0.00
2018-12-13T06:21:56.303Z,0.00
2018-12-13T06:22:56.274Z,0.00
2018-12-13T06:23:56.273Z,0.00
2018-12-13T06:24:56.252Z,0.00
2018-12-13T06:25:56.246Z,0.00
2018-12-13T06:26:56.245Z,0.00
2018-12-13T06:27:56.226Z,0.00
2018-12-13T06:28:56.211Z,0.00
2018-12-13T06:29:59.102Z,0.00
2018-12-13T06:30:56.225Z,0.00
2018-12-13T06:31:56.181Z,0.00
2018-12-13T06:32:56.168Z,0.00
2018-12-13T06:33:56.157Z,0.00
2018-12-13T06:34:56.150Z,0.00
2018-12-13T06:35:56.134Z,0.00
2018-12-13T06:36:56.136Z,0.00
2018-12-13T06:38:01.269Z,0.00
2018-12-13T06:38:57.107Z,0.00
2018-12-13T06:39:56.098Z,0.00
2018-12-13T06:40:56.081Z,0.00
2018-12-13T06:41:56.091Z,0.00
2018-12-13T06:42:56.091Z,0.00
2018-12-13T06:43:56.051Z,0.00
2018-12-13T06:44:56.039Z,0.00
2018-12-13T06:45:56.033Z,0.00
2018-12-13T06:46:56.020Z,0.00
2018-12-13T06:47:56.017Z,0.00
2018-12-13T06:48:56.011Z,0.00
2018-12-13T06:49:55.986Z,0.00
2018-12-13T06:50:55.974Z,0.00
2018-12-13T06:51:55.982Z,0.00
2018-12-13T06:52:55.952Z,0.00
2018-12-13T06:53:55.960Z,0.00
2018-12-13T06:54:55.934Z,0.00
2018-12-13T06:55:55.924Z,0.00
2018-12-13T06:56:55.912Z,0.00
2018-12-13T06:57:55.900Z,0.00
2018-12-13T06:58:55.927Z,0.00
2018-12-13T06:59:55.882Z,0.00
2018-12-13T07:00:55.872Z,0.00
2018-12-13T07:01:55.859Z,0.00
2018-12-13T07:02:55.848Z,0.00
2018-12-13T07:03:55.836Z,0.00
2018-12-13T07:04:55.851Z,0.00
2018-12-13T07:05:55.817Z,0.00
2018-12-13T07:06:55.803Z,0.00
2018-12-13T07:07:55.836Z,0.00
2018-12-13T07:08:55.783Z,0.00
2018-12-13T07:09:55.772Z,0.00
2018-12-13T07:10:55.763Z,0.00
2018-12-13T07:11:55.751Z,0.00
2018-12-13T07:12:55.777Z,0.00
2018-12-13T07:13:55.743Z,0.00
2018-12-13T07:14:55.721Z,5.62
2018-12-13T07:15:55.711Z,5.62
2018-12-13T07:16:55.700Z,5.62
2018-12-13T07:17:55.689Z,5.62
2018-12-13T07:18:55.719Z,5.62
2018-12-13T07:19:55.665Z,5.62
2018-12-13T07:20:55.655Z,5.62
2018-12-13T07:21:55.647Z,5.62
2018-12-13T07:22:55.636Z,5.62
2018-12-13T07:23:55.623Z,11.25
2018-12-13T07:24:55.652Z,11.25
2018-12-13T07:25:55.603Z,11.25
2018-12-13T07:26:55.592Z,11.25
2018-12-13T07:27:55.581Z,11.25
2018-12-13T07:28:55.570Z,11.25
2018-12-13T07:29:55.573Z,16.88
2018-12-13T07:30:55.547Z,16.88
2018-12-13T07:31:55.538Z,16.88
2018-12-13T07:32:55.529Z,16.88
2018-12-13T07:33:55.515Z,16.88
2018-12-13T07:35:01.153Z,16.88
2018-12-13T07:35:56.510Z,16.88
2018-12-13T07:36:55.484Z,22.50
2018-12-13T07:37:55.475Z,22.50
2018-12-13T07:38:55.464Z,22.50
2018-12-13T07:39:55.453Z,22.50
2018-12-13T07:40:55.459Z,22.50
2018-12-13T07:41:55.432Z,28.12
2018-12-13T07:42:55.422Z,28.12
2018-12-13T07:43:55.411Z,28.12
2018-12-13T07:44:55.399Z,33.75
2018-12-13T07:45:55.413Z,33.75
2018-12-13T07:46:55.379Z,33.75
2018-12-13T07:47:55.367Z,33.75
2018-12-13T07:48:56.631Z,33.75
2018-12-13T07:49:55.350Z,39.38
2018-12-13T07:50:55.334Z,39.38
2018-12-13T07:51:55.341Z,39.38
2018-12-13T07:52:55.330Z,45.00
2018-12-13T07:53:55.306Z,45.00
2018-12-13T07:54:55.294Z,50.62
2018-12-13T07:55:55.283Z,50.62
2018-12-13T07:56:55.288Z,50.62
2018-12-13T07:57:55.263Z,50.62
2018-12-13T07:58:55.254Z,50.62
2018-12-13T07:59:55.254Z,56.25
2018-12-13T08:00:55.228Z,56.25
2018-12-13T08:01:55.218Z,61.88
2018-12-13T08:02:55.207Z,61.88
2018-12-13T08:03:55.220Z,61.88
2018-12-13T08:04:55.191Z,61.88
2018-12-13T08:05:55.182Z,67.50
2018-12-13T08:06:55.163Z,67.50
2018-12-13T08:07:55.155Z,73.12
2018-12-13T08:08:55.150Z,78.75
2018-12-13T08:09:55.167Z,78.75
2018-12-13T08:10:55.123Z,84.38
2018-12-13T08:11:55.113Z,84.38
2018-12-13T08:12:55.099Z,84.38
2018-12-13T08:13:55.093Z,90.00
2018-12-13T08:14:55.080Z,90.00
2018-12-13T08:15:55.087Z,90.00
2018-12-13T08:16:55.063Z,90.00
2018-12-13T08:17:55.048Z,95.62
2018-12-13T08:18:55.041Z,95.62
2018-12-13T08:19:55.050Z,95.62
2018-12-13T08:20:55.015Z,101.25
2018-12-13T08:21:55.007Z,101.25
2018-12-13T08:22:54.994Z,101.25
2018-12-13T08:23:54.983Z,112.50
2018-12-13T08:24:54.973Z,112.50
2018-12-13T08:25:54.975Z,112.50
2018-12-13T08:26:54.952Z,118.12
2018-12-13T08:27:54.944Z,123.75
2018-12-13T08:28:54.933Z,129.38
2018-12-13T08:29:54.924Z,129.38
2018-12-13T08:30:54.927Z,135.00
2018-12-13T08:31:54.916Z,135.00
2018-12-13T08:32:54.889Z,135.00
2018-12-13T08:33:54.880Z,129.38
2018-12-13T08:34:54.863Z,129.38
2018-12-13T08:35:54.872Z,135.00
2018-12-13T08:36:54.860Z,135.00
2018-12-13T08:37:54.835Z,140.62
2018-12-13T08:38:54.823Z,146.25
2018-12-13T08:39:54.819Z,146.25
2018-12-13T08:40:54.818Z,146.25
2018-12-13T08:41:54.811Z,140.62
2018-12-13T08:42:54.781Z,140.62
2018-12-13T08:43:54.774Z,140.62
2018-12-13T08:44:54.759Z,140.62
2018-12-13T08:45:54.771Z,146.25
2018-12-13T08:46:54.741Z,146.25
2018-12-13T08:47:54.727Z,146.25
2018-12-13T08:48:54.733Z,151.88
2018-12-13T08:49:54.719Z,151.88
2018-12-13T08:50:54.699Z,151.88
2018-12-13T08:51:54.709Z,151.88
2018-12-13T08:52:54.679Z,157.50
2018-12-13T08:53:54.665Z,157.50
2018-12-13T08:54:54.656Z,157.50
2018-12-13T08:55:54.645Z,157.50
2018-12-13T08:56:54.633Z,163.12
2018-12-13T08:57:54.634Z,168.75
2018-12-13T08:58:54.613Z,168.75
2018-12-13T08:59:54.601Z,168.75
2018-12-13T09:00:54.604Z,168.75
2018-12-13T09:01:54.583Z,163.12
2018-12-13T09:02:54.609Z,163.12
2018-12-13T09:03:54.558Z,163.12
2018-12-13T09:04:54.552Z,163.12
2018-12-13T09:05:54.542Z,163.12
2018-12-13T09:06:54.526Z,174.38
2018-12-13T09:07:54.519Z,174.38
2018-12-13T09:08:54.519Z,168.75
2018-12-13T09:09:54.493Z,168.75
2018-12-13T09:10:54.483Z,168.75
2018-12-13T09:11:54.472Z,174.38
2018-12-13T09:12:54.468Z,180.00
2018-12-13T09:13:54.469Z,185.62
2018-12-13T09:14:54.445Z,191.25
2018-12-13T09:15:54.437Z,185.62
2018-12-13T09:16:54.429Z,185.62
2018-12-13T09:17:54.408Z,185.62
2018-12-13T09:18:54.412Z,191.25
2018-12-13T09:19:54.393Z,191.25
2018-12-13T09:20:54.396Z,191.25
2018-12-13T09:21:54.374Z,202.50
2018-12-13T09:22:54.357Z,213.75
2018-12-13T09:23:54.344Z,225.00
2018-12-13T09:24:54.336Z,230.62
2018-12-13T09:25:54.340Z,236.25
2018-12-13T09:26:54.314Z,241.88
2018-12-13T09:27:54.304Z,258.75
2018-12-13T09:28:54.292Z,264.38
2018-12-13T09:29:54.280Z,270.00
2018-12-13T09:30:54.285Z,258.75
2018-12-13T09:31:54.262Z,253.12
2018-12-13T09:32:54.251Z,247.50
2018-12-13T09:33:54.239Z,236.25
2018-12-13T09:34:54.241Z,230.62
2018-12-13T09:35:54.220Z,230.62
2018-12-13T09:36:54.243Z,225.00
2018-12-13T09:37:54.195Z,219.38
2018-12-13T09:38:54.187Z,219.38
2018-12-13T09:39:54.175Z,225.00
2018-12-13T09:40:54.166Z,230.62
2018-12-13T09:41:54.156Z,230.62
2018-12-13T09:42:54.159Z,236.25
2018-12-13T09:43:54.131Z,230.62
2018-12-13T09:44:54.138Z,230.62
2018-12-13T09:45:54.112Z,230.62
2018-12-13T09:46:54.098Z,230.62
2018-12-13T09:47:54.093Z,230.62
2018-12-13T09:48:54.080Z,230.62
2018-12-13T09:49:54.093Z,230.62
2018-12-13T09:50:54.056Z,236.25
2018-12-13T09:51:54.051Z,230.62
2018-12-13T09:52:54.037Z,225.00
2018-12-13T09:53:54.025Z,225.00
2018-12-13T09:54:54.013Z,219.38
2018-12-13T09:55:54.015Z,219.38
2018-12-13T09:56:53.991Z,219.38
2018-12-13T09:57:53.982Z,225.00
2018-12-13T09:58:53.990Z,225.00
2018-12-13T09:59:53.960Z,230.62
2018-12-13T10:00:53.953Z,236.25
2018-12-13T10:01:53.938Z,247.50
2018-12-13T10:02:53.928Z,253.12
2018-12-13T10:03:53.915Z,253.12
2018-12-13T10:04:53.921Z,253.12
2018-12-13T10:05:53.929Z,253.12
2018-12-13T10:06:53.884Z,253.12
2018-12-13T10:07:53.874Z,253.12
2018-12-13T10:08:53.863Z,253.12
2018-12-13T10:09:53.851Z,253.12
2018-12-13T10:10:53.843Z,253.12
2018-12-13T10:11:53.846Z,253.12
2018-12-13T10:12:53.821Z,247.50
2018-12-13T10:13:53.808Z,241.88
2018-12-13T10:14:53.799Z,241.88
2018-12-13T10:15:53.804Z,241.88
2018-12-13T10:16:53.776Z,241.88
2018-12-13T10:17:53.769Z,236.25
2018-12-13T10:18:53.760Z,230.62
2018-12-13T10:19:53.747Z,230.62
2018-12-13T10:20:53.771Z,230.62
2018-12-13T10:21:53.723Z,230.62
2018-12-13T10:22:53.714Z,230.62
2018-12-13T10:23:53.705Z,230.62
2018-12-13T10:24:53.692Z,236.25
2018-12-13T10:25:59.373Z,230.62
2018-12-13T10:26:54.685Z,230.62
2018-12-13T10:27:53.662Z,230.62
2018-12-13T10:28:53.651Z,230.62
2018-12-13T10:29:53.636Z,230.62
2018-12-13T10:30:53.628Z,225.00
2018-12-13T10:31:53.652Z,225.00
2018-12-13T10:32:53.607Z,225.00
2018-12-13T10:33:53.594Z,219.38
2018-12-13T10:34:53.587Z,225.00
2018-12-13T10:35:53.573Z,230.62
2018-12-13T10:36:53.564Z,230.62
2018-12-13T10:37:53.606Z,236.25
2018-12-13T10:38:53.547Z,236.25
2018-12-13T10:39:53.531Z,208.12
2018-12-13T10:40:53.525Z,202.50
2018-12-13T10:41:53.508Z,225.00
2018-12-13T10:42:53.498Z,219.38
2018-12-13T10:43:53.519Z,202.50
2018-12-13T10:44:53.475Z,202.50
2018-12-13T10:45:53.467Z,225.00
2018-12-13T10:46:54.232Z,230.62
2018-12-13T10:47:53.443Z,247.50
2018-12-13T10:48:53.435Z,241.88
2018-12-13T10:49:53.436Z,247.50
2018-12-13T10:50:53.416Z,247.50
2018-12-13T10:51:53.403Z,247.50
2018-12-13T10:52:53.402Z,247.50
2018-12-13T10:53:53.384Z,270.00
2018-12-13T10:54:53.367Z,270.00
2018-12-13T10:55:53.359Z,264.38
2018-12-13T10:56:53.349Z,264.38
2018-12-13T10:57:53.352Z,264.38
2018-12-13T10:58:53.328Z,281.25
2018-12-13T10:59:53.318Z,286.88
2018-12-13T11:00:53.308Z,286.88
2018-12-13T11:01:53.295Z,281.25
2018-12-13T11:02:53.292Z,264.38
2018-12-13T11:03:53.276Z,258.75
2018-12-13T11:04:53.273Z,286.88
2018-12-13T11:05:53.252Z,275.62
2018-12-13T11:06:53.239Z,270.00
2018-12-13T11:07:53.243Z,281.25
2018-12-13T11:08:59.221Z,270.00
2018-12-13T11:09:54.226Z,253.12
2018-12-13T11:10:53.196Z,247.50
2018-12-13T11:11:53.187Z,225.00
2018-12-13T11:12:53.175Z,219.38
2018-12-13T11:13:53.167Z,213.75
2018-12-13T11:14:53.156Z,219.38
2018-12-13T11:15:53.165Z,241.88
2018-12-13T11:16:53.132Z,258.75
2018-12-13T11:17:53.122Z,253.12
2018-12-13T11:18:53.110Z,236.25
2018-12-13T11:19:53.102Z,213.75
2018-12-13T11:20:53.092Z,208.12
2018-12-13T11:21:53.134Z,202.50
2018-12-13T11:22:53.069Z,196.88
2018-12-13T11:23:53.058Z,196.88
2018-12-13T11:24:53.049Z,196.88
2018-12-13T11:25:53.040Z,196.88
2018-12-13T11:26:53.024Z,202.50
2018-12-13T11:27:53.027Z,202.50
2018-12-13T11:28:53.021Z,202.50
2018-12-13T11:29:52.991Z,202.50
2018-12-13T11:30:52.985Z,202.50
2018-12-13T11:31:52.975Z,208.12
2018-12-13T11:32:52.979Z,208.12
2018-12-13T11:33:52.949Z,213.75
2018-12-13T11:34:52.940Z,208.12
2018-12-13T11:35:52.926Z,202.50
2018-12-13T11:36:52.947Z,196.88
2018-12-13T11:37:52.907Z,202.50
2018-12-13T11:38:52.912Z,208.12
2018-12-13T11:39:52.884Z,213.75
2018-12-13T11:40:52.875Z,219.38
2018-12-13T11:41:52.861Z,219.38
2018-12-13T11:42:52.867Z,219.38
2018-12-13T11:43:52.840Z,219.38
2018-12-13T11:44:52.832Z,225.00
2018-12-13T11:45:52.831Z,230.62
2018-12-13T11:46:52.811Z,236.25
2018-12-13T11:47:52.796Z,236.25
2018-12-13T11:48:52.788Z,236.25
2018-12-13T11:49:52.775Z,236.25
2018-12-13T11:50:52.780Z,230.62
2018-12-13T11:51:52.772Z,230.62
2018-12-13T11:52:52.749Z,236.25
2018-12-13T11:53:52.735Z,241.88
2018-12-13T11:54:52.722Z,241.88
2018-12-13T11:55:52.714Z,247.50
2018-12-13T11:56:52.715Z,241.88
2018-12-13T11:57:52.691Z,241.88
2018-12-13T11:58:52.699Z,247.50
2018-12-13T11:59:52.668Z,247.50
2018-12-13T12:00:52.657Z,247.50
2018-12-13T12:01:52.647Z,253.12
2018-12-13T12:02:52.639Z,247.50
2018-12-13T12:03:52.626Z,247.50
2018-12-13T12:04:52.628Z,241.88
2018-12-13T12:05:52.605Z,241.88
2018-12-13T12:06:52.622Z,241.88
2018-12-13T12:07:52.602Z,241.88
2018-12-13T12:08:52.575Z,247.50
2018-12-13T12:09:52.564Z,247.50
2018-12-13T12:10:52.560Z,247.50
2018-12-13T12:11:52.542Z,253.12
2018-12-13T12:12:52.528Z,258.75
2018-12-13T12:13:52.544Z,258.75
2018-12-13T12:14:52.509Z,258.75
2018-12-13T12:15:52.499Z,253.12
2018-12-13T12:16:52.488Z,253.12
2018-12-13T12:17:52.474Z,247.50
2018-12-13T12:18:52.464Z,236.25
2018-12-13T12:19:52.469Z,247.50
2018-12-13T12:20:52.442Z,253.12
2018-12-13T12:21:52.433Z,219.38
2018-12-13T12:22:52.424Z,185.62
2018-12-13T12:23:52.427Z,180.00
2018-12-13T12:24:52.427Z,185.62
2018-12-13T12:25:52.392Z,180.00
2018-12-13T12:26:52.381Z,191.25
2018-12-13T12:27:52.369Z,174.38
2018-12-13T12:28:52.357Z,135.00
2018-12-13T12:29:52.344Z,101.25
2018-12-13T12:30:52.365Z,90.00
2018-12-13T12:31:52.326Z,90.00
2018-12-13T12:32:52.317Z,112.50
2018-12-13T12:33:52.309Z,123.75
2018-12-13T12:34:52.294Z,112.50
2018-12-13T12:35:52.284Z,95.62
2018-12-13T12:36:52.286Z,95.62
2018-12-13T12:37:52.260Z,106.88
2018-12-13T12:38:52.253Z,135.00
2018-12-13T12:39:52.239Z,163.12
2018-12-13T12:40:52.228Z,168.75
2018-12-13T12:41:52.218Z,163.12
2018-12-13T12:42:52.220Z,129.38
2018-12-13T12:43:52.208Z,129.38
2018-12-13T12:44:52.186Z,157.50
2018-12-13T12:45:52.173Z,157.50
2018-12-13T12:46:52.171Z,140.62
2018-12-13T12:47:52.167Z,129.38
2018-12-13T12:48:52.142Z,135.00
2018-12-13T12:49:52.134Z,129.38
2018-12-13T12:50:52.137Z,140.62
2018-12-13T12:51:52.110Z,135.00
2018-12-13T12:52:52.117Z,157.50
2018-12-13T12:53:52.091Z,163.12
2018-12-13T12:54:52.080Z,163.12
2018-12-13T12:55:52.066Z,157.50
2018-12-13T12:56:52.058Z,151.88
2018-12-13T12:57:52.057Z,180.00